Amenia, North Dakota
Current Conditions -  °F | °C
As of 4:53 AM on Saturday 25 Oct 2014 (Local Time) from KFAR Reporting Station
Clear Clear  
Wind Chill: 37°   Ceiling: Unl
Heat Index: 43°   Visibility: 10mi
Dew Point: 32°   Wind: 10mph
Humidity: 65%   Direction: 270°W
Pressure: 30.02"   Gusts: NA
Location:  47°N, 97.22°W
Report Text: KFAR 250953Z AUTO 27009KT 10SM CLR 06/00 A3002 RMK AO2 SLP169 T00610000 TSNO $
Loading
Personal Weather Stations






























Interactive Weather Map
Tropical Storm Tracking
New forecast layout! Learn more

10-Day Weather Forecast

Advertisements
Track Severe Weather on mobile